createdAt,value
2023-11-21T00:00:08.105Z,990.44
2023-11-21T00:00:18.326Z,990.44
2023-11-21T00:00:28.587Z,990.44
2023-11-21T00:00:39.020Z,990.45
2023-11-21T00:00:49.480Z,990.45
2023-11-21T00:00:59.932Z,990.45
2023-11-21T00:01:10.541Z,990.45
2023-11-21T00:01:20.835Z,990.45
2023-11-21T00:01:31.084Z,990.46
2023-11-21T00:01:41.569Z,990.46
2023-11-21T00:01:51.870Z,990.46
2023-11-21T00:02:02.206Z,990.46
2023-11-21T00:02:12.576Z,990.46
2023-11-21T00:02:22.925Z,990.47
2023-11-21T00:02:33.196Z,990.47
2023-11-21T00:02:43.557Z,990.47
2023-11-21T00:02:53.813Z,990.47
2023-11-21T00:03:04.153Z,990.48
2023-11-21T00:03:14.409Z,990.48
2023-11-21T00:03:24.741Z,990.48
2023-11-21T00:03:35.043Z,990.48
2023-11-21T00:03:45.335Z,990.48
2023-11-21T00:03:55.622Z,990.49
2023-11-21T00:04:06.076Z,990.49
2023-11-21T00:04:16.752Z,990.50
2023-11-21T00:04:27.025Z,990.50
2023-11-21T00:04:37.487Z,990.50
2023-11-21T00:04:47.960Z,990.51
2023-11-21T00:04:58.402Z,990.51
2023-11-21T00:05:08.622Z,990.51
2023-11-21T00:05:19.090Z,990.51
2023-11-21T00:05:29.547Z,990.51
2023-11-21T00:05:40.000Z,990.52
2023-11-21T00:05:50.462Z,990.52
2023-11-21T00:06:00.916Z,990.51
2023-11-21T00:06:11.376Z,990.51
2023-11-21T00:06:21.832Z,990.51
2023-11-21T00:06:32.290Z,990.52
2023-11-21T00:06:42.753Z,990.52
2023-11-21T00:06:53.217Z,990.52
2023-11-21T00:07:03.668Z,990.52
2023-11-21T00:07:14.154Z,990.52
2023-11-21T00:07:24.638Z,990.52
2023-11-21T00:07:34.852Z,990.53
2023-11-21T00:07:45.383Z,990.53
2023-11-21T00:07:55.645Z,990.53
2023-11-21T00:08:06.107Z,990.53
2023-11-21T00:08:16.561Z,990.52
2023-11-21T00:08:27.023Z,990.52
2023-11-21T00:08:37.481Z,990.53
2023-11-21T00:08:47.938Z,990.53
2023-11-21T00:08:58.422Z,990.53
2023-11-21T00:09:08.876Z,990.53
2023-11-21T00:09:19.322Z,990.53
2023-11-21T00:09:29.779Z,990.53
2023-11-21T00:09:40.237Z,990.53
2023-11-21T00:09:50.712Z,990.53
2023-11-21T00:10:01.159Z,990.53
2023-11-21T00:10:11.801Z,990.54
2023-11-21T00:10:21.969Z,990.54
2023-11-21T00:10:32.437Z,990.54
2023-11-21T00:10:42.897Z,990.54
2023-11-21T00:10:53.375Z,990.53
2023-11-21T00:11:03.597Z,990.55
2023-11-21T00:11:14.050Z,990.54
2023-11-21T00:11:24.511Z,990.54
2023-11-21T00:11:34.972Z,990.54
2023-11-21T00:11:45.425Z,990.54
2023-11-21T00:11:55.886Z,990.54
2023-11-21T00:12:06.360Z,990.54
2023-11-21T00:12:16.613Z,990.54
2023-11-21T00:12:26.828Z,990.54
2023-11-21T00:12:37.057Z,990.54
2023-11-21T00:12:47.512Z,990.54
2023-11-21T00:12:57.968Z,990.54
2023-11-21T00:13:08.454Z,990.54
2023-11-21T00:13:18.714Z,990.54
2023-11-21T00:13:29.208Z,990.54
2023-11-21T00:13:39.488Z,990.54
2023-11-21T00:13:51.020Z,990.54
2023-11-21T00:14:00.007Z,990.54
2023-11-21T00:14:10.466Z,990.54
2023-11-21T00:14:20.926Z,990.54
2023-11-21T00:14:31.386Z,990.53
2023-11-21T00:14:41.848Z,990.53
2023-11-21T00:14:53.340Z,990.53
2023-11-21T00:15:02.817Z,990.53
2023-11-21T00:15:13.381Z,990.53
2023-11-21T00:15:23.431Z,990.53
2023-11-21T00:15:33.896Z,990.53
2023-11-21T00:15:44.386Z,990.53
2023-11-21T00:15:54.616Z,990.53
2023-11-21T00:16:05.065Z,990.53
2023-11-21T00:16:15.576Z,990.53
2023-11-21T00:16:25.902Z,990.53
2023-11-21T00:16:36.227Z,990.53
2023-11-21T00:16:46.529Z,990.52
2023-11-21T00:16:56.863Z,990.53
2023-11-21T00:17:07.263Z,990.52
2023-11-21T00:17:17.594Z,990.52
2023-11-21T00:17:27.851Z,990.52
2023-11-21T00:17:38.318Z,990.52
2023-11-21T00:17:48.793Z,990.52
2023-11-21T00:17:59.273Z,990.52
2023-11-21T00:18:09.500Z,990.52
2023-11-21T00:18:20.023Z,990.53
2023-11-21T00:18:30.294Z,990.52
2023-11-21T00:18:40.721Z,990.52
2023-11-21T00:18:51.179Z,990.52
2023-11-21T00:19:01.638Z,990.52
2023-11-21T00:19:12.134Z,990.52
2023-11-21T00:19:22.650Z,990.52
2023-11-21T00:19:32.895Z,990.52
2023-11-21T00:19:43.143Z,990.52
2023-11-21T00:19:53.359Z,990.53
2023-11-21T00:20:03.817Z,990.52
2023-11-21T00:20:14.984Z,990.52
2023-11-21T00:20:24.681Z,990.52
2023-11-21T00:20:35.135Z,990.53
2023-11-21T00:20:45.595Z,990.52
2023-11-21T00:20:56.061Z,990.53
2023-11-21T00:21:06.514Z,990.53
2023-11-21T00:21:16.980Z,990.53
2023-11-21T00:21:27.445Z,990.53
2023-11-21T00:21:37.670Z,990.53
2023-11-21T00:21:48.139Z,990.53
2023-11-21T00:21:58.396Z,990.53
2023-11-21T00:22:08.793Z,990.53
2023-11-21T00:22:19.034Z,990.53
2023-11-21T00:22:29.517Z,990.53
2023-11-21T00:22:39.749Z,990.53
2023-11-21T00:22:50.244Z,990.53
2023-11-21T00:23:00.455Z,990.53
2023-11-21T00:23:10.929Z,990.53
2023-11-21T00:23:21.382Z,990.53
2023-11-21T00:23:31.826Z,990.52
2023-11-21T00:23:42.283Z,990.52
2023-11-21T00:23:52.750Z,990.52
2023-11-21T00:24:03.211Z,990.52
2023-11-21T00:24:13.662Z,990.53
2023-11-21T00:24:24.120Z,990.53
2023-11-21T00:24:34.582Z,990.53
2023-11-21T00:24:45.038Z,990.53
2023-11-21T00:24:55.505Z,990.53
2023-11-21T00:25:05.960Z,990.54
2023-11-21T00:25:16.737Z,990.54
2023-11-21T00:25:26.912Z,990.54
2023-11-21T00:25:37.386Z,990.54
2023-11-21T00:25:47.626Z,990.54
2023-11-21T00:25:58.072Z,990.55
2023-11-21T00:26:08.538Z,990.55
2023-11-21T00:26:18.751Z,990.55
2023-11-21T00:26:29.217Z,990.55
2023-11-21T00:26:39.465Z,990.56
2023-11-21T00:26:49.832Z,990.56
2023-11-21T00:27:00.056Z,990.56
2023-11-21T00:27:10.512Z,990.56
2023-11-21T00:27:20.973Z,990.56
2023-11-21T00:27:31.437Z,990.56
2023-11-21T00:27:41.913Z,990.56
2023-11-21T00:27:52.359Z,990.56
2023-11-21T00:28:02.821Z,990.56
2023-11-21T00:28:13.295Z,990.57
2023-11-21T00:28:23.795Z,990.56
2023-11-21T00:28:34.052Z,990.56
2023-11-21T00:28:44.371Z,990.56
2023-11-21T00:28:54.569Z,990.56
2023-11-21T00:29:05.033Z,990.57
2023-11-21T00:29:15.514Z,990.56
2023-11-21T00:29:25.942Z,990.56
2023-11-21T00:29:36.398Z,990.57
2023-11-21T00:29:46.859Z,990.57
2023-11-21T00:29:57.319Z,990.57
2023-11-21T00:30:07.921Z,990.56
2023-11-21T00:30:18.129Z,990.56
2023-11-21T00:30:28.597Z,990.56
2023-11-21T00:30:39.068Z,990.57
2023-11-21T00:30:49.577Z,990.56
2023-11-21T00:30:59.770Z,990.56
2023-11-21T00:31:10.052Z,990.56
2023-11-21T00:31:20.261Z,990.56
2023-11-21T00:31:30.726Z,990.56
2023-11-21T00:31:41.210Z,990.56
2023-11-21T00:31:51.520Z,990.56
2023-11-21T00:32:01.740Z,990.56
2023-11-21T00:32:12.189Z,990.57
2023-11-21T00:32:22.666Z,990.57
2023-11-21T00:32:33.171Z,990.57
2023-11-21T00:32:43.478Z,990.58
2023-11-21T00:32:53.735Z,990.58
2023-11-21T00:33:04.039Z,990.58
2023-11-21T00:33:14.375Z,990.59
2023-11-21T00:33:24.726Z,990.59
2023-11-21T00:33:35.109Z,990.59
2023-11-21T00:33:45.394Z,990.59
2023-11-21T00:33:55.647Z,990.59
2023-11-21T00:34:06.108Z,990.59
2023-11-21T00:34:16.633Z,990.60
2023-11-21T00:34:26.893Z,990.60
2023-11-21T00:34:37.380Z,990.60
2023-11-21T00:34:47.633Z,990.60
2023-11-21T00:34:57.861Z,990.61
2023-11-21T00:35:08.300Z,990.61
2023-11-21T00:35:18.755Z,990.61
2023-11-21T00:35:29.223Z,990.61
2023-11-21T00:35:39.447Z,990.62
2023-11-21T00:35:49.924Z,990.62
2023-11-21T00:36:00.209Z,990.62
2023-11-21T00:36:10.414Z,990.62
2023-11-21T00:36:20.873Z,990.62
2023-11-21T00:36:31.349Z,990.63
2023-11-21T00:36:41.801Z,990.63
2023-11-21T00:36:52.248Z,990.62
2023-11-21T00:37:02.706Z,990.62
2023-11-21T00:37:13.182Z,990.63
2023-11-21T00:37:23.651Z,990.63
2023-11-21T00:37:34.132Z,990.63
2023-11-21T00:37:44.376Z,990.63
2023-11-21T00:37:54.619Z,990.63
2023-11-21T00:38:04.812Z,990.63
2023-11-21T00:38:15.272Z,990.63
2023-11-21T00:38:25.751Z,990.63
2023-11-21T00:38:36.197Z,990.63
2023-11-21T00:38:46.653Z,990.64
2023-11-21T00:38:57.113Z,990.65
2023-11-21T00:39:07.570Z,990.65
2023-11-21T00:39:18.031Z,990.65
2023-11-21T00:39:28.490Z,990.64
2023-11-21T00:39:38.953Z,990.65
2023-11-21T00:39:49.417Z,990.66
2023-11-21T00:39:59.898Z,990.66
2023-11-21T00:40:10.178Z,990.67
2023-11-21T00:40:20.440Z,990.67
2023-11-21T00:40:30.693Z,990.68
2023-11-21T00:40:40.957Z,990.68
2023-11-21T00:40:51.300Z,990.67
2023-11-21T00:41:01.505Z,990.68
2023-11-21T00:41:12.004Z,990.68
2023-11-21T00:41:22.195Z,990.68
2023-11-21T00:41:32.658Z,990.68
2023-11-21T00:41:43.108Z,990.69
2023-11-21T00:41:53.570Z,990.69
2023-11-21T00:42:04.063Z,990.69
2023-11-21T00:42:14.487Z,990.69
2023-11-21T00:42:24.945Z,990.69
2023-11-21T00:42:35.419Z,990.69
2023-11-21T00:42:45.869Z,990.69
2023-11-21T00:42:56.323Z,990.70
2023-11-21T00:43:06.891Z,990.70
2023-11-21T00:43:17.175Z,990.70
2023-11-21T00:43:27.387Z,990.70
2023-11-21T00:43:37.886Z,990.71
2023-11-21T00:43:48.113Z,990.70
2023-11-21T00:43:58.337Z,990.70
2023-11-21T00:44:08.793Z,990.70
2023-11-21T00:44:19.277Z,990.70
2023-11-21T00:44:29.715Z,990.70
2023-11-21T00:44:40.186Z,990.70
2023-11-21T00:44:50.415Z,990.70
2023-11-21T00:45:00.892Z,990.71
2023-11-21T00:45:11.114Z,990.71
2023-11-21T00:45:21.562Z,990.71
2023-11-21T00:45:32.022Z,990.71
2023-11-21T00:45:42.482Z,990.71
2023-11-21T00:45:52.962Z,990.70
2023-11-21T00:46:03.404Z,990.70
2023-11-21T00:46:13.961Z,990.71
2023-11-21T00:46:24.305Z,990.72
2023-11-21T00:46:34.599Z,990.72
2023-11-21T00:46:44.958Z,990.72
2023-11-21T00:46:55.247Z,990.72
2023-11-21T00:47:05.564Z,990.72
2023-11-21T00:47:15.880Z,990.72
2023-11-21T00:47:26.210Z,990.72
2023-11-21T00:47:36.500Z,990.72
2023-11-21T00:47:46.733Z,990.73
2023-11-21T00:47:57.193Z,990.73
2023-11-21T00:48:07.451Z,990.73
2023-11-21T00:48:17.900Z,990.73
2023-11-21T00:48:28.344Z,990.73
2023-11-21T00:48:38.842Z,990.73
2023-11-21T00:48:49.276Z,990.73
2023-11-21T00:48:59.723Z,990.73
2023-11-21T00:49:10.217Z,990.74
2023-11-21T00:49:20.698Z,990.74
2023-11-21T00:49:30.906Z,990.74
2023-11-21T00:49:41.455Z,990.74
2023-11-21T00:49:51.759Z,990.74
2023-11-21T00:50:02.013Z,990.74
2023-11-21T00:50:12.217Z,990.74
2023-11-21T00:50:22.667Z,990.75
2023-11-21T00:50:33.139Z,990.76
2023-11-21T00:50:43.594Z,990.75
2023-11-21T00:50:54.059Z,990.75
2023-11-21T00:51:04.508Z,990.75
2023-11-21T00:51:14.977Z,990.75
2023-11-21T00:51:25.432Z,990.75
2023-11-21T00:51:35.897Z,990.76
2023-11-21T00:51:46.360Z,990.76
2023-11-21T00:51:56.825Z,990.76
2023-11-21T00:52:07.273Z,990.75
2023-11-21T00:52:17.754Z,990.77
2023-11-21T00:52:28.287Z,990.77
2023-11-21T00:52:38.651Z,990.77
2023-11-21T00:52:48.939Z,990.77
2023-11-21T00:52:59.151Z,990.78
2023-11-21T00:53:09.626Z,990.78
2023-11-21T00:53:20.070Z,990.78
2023-11-21T00:53:30.523Z,990.78
2023-11-21T00:53:40.986Z,990.78
2023-11-21T00:53:51.455Z,990.79
2023-11-21T00:54:01.681Z,990.79
2023-11-21T00:54:12.153Z,990.79
2023-11-21T00:54:22.386Z,990.79
2023-11-21T00:54:34.299Z,990.79
2023-11-21T00:54:42.892Z,990.79
2023-11-21T00:54:53.351Z,990.79
2023-11-21T00:55:03.809Z,990.79
2023-11-21T00:55:14.303Z,990.80
2023-11-21T00:55:24.559Z,990.80
2023-11-21T00:55:35.094Z,990.80
2023-11-21T00:55:45.323Z,990.81
2023-11-21T00:55:55.750Z,990.80
2023-11-21T00:56:06.212Z,990.80
2023-11-21T00:56:16.663Z,990.80
2023-11-21T00:56:27.124Z,990.80
2023-11-21T00:56:37.578Z,990.80
2023-11-21T00:56:48.044Z,990.81
2023-11-21T00:56:58.492Z,990.81
2023-11-21T00:57:08.952Z,990.80
2023-11-21T00:57:19.410Z,990.81
2023-11-21T00:57:29.871Z,990.80
2023-11-21T00:57:40.332Z,990.81
2023-11-21T00:57:50.791Z,990.81
2023-11-21T00:58:01.244Z,990.80
2023-11-21T00:58:11.753Z,990.80
2023-11-21T00:58:21.993Z,990.80
2023-11-21T00:58:32.487Z,990.80
2023-11-21T00:58:42.741Z,990.80
2023-11-21T00:58:52.985Z,990.80
2023-11-21T00:59:03.209Z,990.81
2023-11-21T00:59:13.676Z,990.80
2023-11-21T00:59:24.127Z,990.81
2023-11-21T00:59:34.586Z,990.81
2023-11-21T00:59:45.044Z,990.81
2023-11-21T00:59:55.509Z,990.81
2023-11-21T01:00:05.973Z,990.81
2023-11-21T01:00:16.427Z,990.81
2023-11-21T01:00:26.894Z,990.81
2023-11-21T01:00:37.361Z,990.81
2023-11-21T01:00:47.830Z,990.82
2023-11-21T01:00:58.297Z,990.82
2023-11-21T01:01:08.530Z,990.82
2023-11-21T01:01:18.992Z,990.83
2023-11-21T01:01:29.276Z,990.83
2023-11-21T01:01:39.503Z,990.83
2023-11-21T01:01:49.971Z,990.83
2023-11-21T01:02:00.260Z,990.83
2023-11-21T01:02:10.457Z,990.83
2023-11-21T01:02:20.922Z,990.83
2023-11-21T01:02:31.407Z,990.83
2023-11-21T01:02:41.675Z,990.84
2023-11-21T01:02:51.980Z,990.84
2023-11-21T01:03:02.280Z,990.84
2023-11-21T01:03:12.623Z,990.84
2023-11-21T01:03:22.904Z,990.85
2023-11-21T01:03:33.160Z,990.84
2023-11-21T01:03:43.568Z,990.85
2023-11-21T01:03:53.768Z,990.85
2023-11-21T01:04:04.226Z,990.85
2023-11-21T01:04:14.730Z,990.85
2023-11-21T01:04:25.209Z,990.85
2023-11-21T01:04:35.405Z,990.85
2023-11-21T01:04:45.900Z,990.86
2023-11-21T01:04:56.329Z,990.86
2023-11-21T01:05:06.787Z,990.87
2023-11-21T01:05:17.249Z,990.87
2023-11-21T01:05:27.705Z,990.87
2023-11-21T01:05:38.185Z,990.88
2023-11-21T01:05:48.401Z,990.88
2023-11-21T01:05:58.868Z,990.89
2023-11-21T01:06:09.318Z,990.89
2023-11-21T01:06:19.770Z,990.89
2023-11-21T01:06:30.237Z,990.89
2023-11-21T01:06:40.686Z,990.89
2023-11-21T01:06:51.146Z,990.90
2023-11-21T01:07:01.613Z,990.91
2023-11-21T01:07:12.117Z,990.90
2023-11-21T01:07:22.357Z,990.90
2023-11-21T01:07:32.604Z,990.90
2023-11-21T01:07:43.134Z,990.90
2023-11-21T01:07:53.407Z,990.91
2023-11-21T01:08:03.603Z,990.91
2023-11-21T01:08:14.074Z,990.91
2023-11-21T01:08:24.298Z,990.91
2023-11-21T01:08:34.756Z,990.91
2023-11-21T01:08:45.229Z,990.92
2023-11-21T01:08:55.674Z,990.92
2023-11-21T01:09:06.132Z,990.91
2023-11-21T01:09:16.589Z,990.91
2023-11-21T01:09:27.053Z,990.91
2023-11-21T01:09:37.503Z,990.91
2023-11-21T01:09:47.981Z,990.91
2023-11-21T01:09:58.213Z,990.91
2023-11-21T01:10:08.798Z,990.92
2023-11-21T01:10:19.110Z,990.92
2023-11-21T01:10:29.335Z,990.91
2023-11-21T01:10:39.801Z,990.91
2023-11-21T01:10:50.333Z,990.92
2023-11-21T01:11:00.522Z,990.91
2023-11-21T01:11:10.982Z,990.91
2023-11-21T01:11:21.281Z,990.91
2023-11-21T01:11:31.733Z,990.91
2023-11-21T01:11:42.193Z,990.91
2023-11-21T01:11:52.653Z,990.91
2023-11-21T01:12:03.112Z,990.91
2023-11-21T01:12:13.573Z,990.91
2023-11-21T01:12:24.028Z,990.91
2023-11-21T01:12:34.506Z,990.91
2023-11-21T01:12:44.721Z,990.91
2023-11-21T01:12:55.195Z,990.91
2023-11-21T01:13:05.421Z,990.92
2023-11-21T01:13:15.912Z,990.92
2023-11-21T01:13:26.147Z,990.92
2023-11-21T01:13:36.664Z,990.92
2023-11-21T01:13:46.929Z,990.92
2023-11-21T01:13:57.150Z,990.93
2023-11-21T01:14:07.621Z,990.93
2023-11-21T01:14:18.097Z,990.93
2023-11-21T01:14:28.577Z,990.94
2023-11-21T01:14:38.776Z,990.94
2023-11-21T01:14:49.234Z,990.95
2023-11-21T01:14:59.691Z,990.95
2023-11-21T01:15:10.339Z,990.95
2023-11-21T01:15:20.580Z,990.96
2023-11-21T01:15:30.820Z,990.96
2023-11-21T01:15:41.280Z,990.96
2023-11-21T01:15:51.750Z,990.97
2023-11-21T01:16:02.197Z,990.97
2023-11-21T01:16:12.683Z,990.97
2023-11-21T01:16:23.202Z,990.98
2023-11-21T01:16:33.533Z,990.98
2023-11-21T01:16:43.889Z,990.98
2023-11-21T01:16:54.178Z,990.98
2023-11-21T01:17:04.466Z,990.99
2023-11-21T01:17:14.896Z,990.99
2023-11-21T01:17:25.213Z,991.00
2023-11-21T01:17:35.533Z,991.01
2023-11-21T01:17:45.858Z,991.01
2023-11-21T01:17:56.106Z,991.01
2023-11-21T01:18:06.356Z,991.01
2023-11-21T01:18:16.604Z,991.02
2023-11-21T01:18:27.033Z,991.01
2023-11-21T01:18:37.501Z,991.02
2023-11-21T01:18:47.976Z,991.02
2023-11-21T01:18:58.412Z,991.02
2023-11-21T01:19:08.870Z,991.03
2023-11-21T01:19:19.384Z,991.03
2023-11-21T01:19:29.674Z,991.03
2023-11-21T01:19:39.997Z,991.03
2023-11-21T01:19:50.296Z,991.03
2023-11-21T01:20:00.677Z,991.03
2023-11-21T01:20:11.090Z,991.03
2023-11-21T01:20:21.375Z,991.03
2023-11-21T01:20:31.681Z,991.03
2023-11-21T01:20:41.905Z,991.03
2023-11-21T01:20:52.373Z,991.04
2023-11-21T01:21:02.824Z,991.04
2023-11-21T01:21:13.287Z,991.05
2023-11-21T01:21:23.746Z,991.04
2023-11-21T01:21:34.205Z,991.05
2023-11-21T01:21:44.683Z,991.05
2023-11-21T01:21:54.912Z,991.05
2023-11-21T01:22:05.359Z,991.06
2023-11-21T01:22:15.938Z,991.06
2023-11-21T01:22:26.151Z,991.07
2023-11-21T01:22:36.710Z,991.07
2023-11-21T01:22:46.923Z,991.07
2023-11-21T01:22:57.359Z,991.07
2023-11-21T01:23:07.833Z,991.08
2023-11-21T01:23:18.279Z,991.07
2023-11-21T01:23:28.741Z,991.06
2023-11-21T01:23:39.194Z,991.06
2023-11-21T01:23:49.651Z,991.07
2023-11-21T01:24:00.135Z,991.08
2023-11-21T01:24:10.567Z,991.08
2023-11-21T01:24:21.025Z,991.08
2023-11-21T01:24:31.506Z,991.08
2023-11-21T01:24:41.964Z,991.09
2023-11-21T01:24:52.404Z,991.09
2023-11-21T01:25:02.860Z,991.09
2023-11-21T01:25:13.351Z,991.10
2023-11-21T01:25:23.796Z,991.09
2023-11-21T01:25:34.317Z,991.10
2023-11-21T01:25:44.572Z,991.09
2023-11-21T01:25:54.809Z,991.10
2023-11-21T01:26:05.247Z,991.10
2023-11-21T01:26:15.700Z,991.10
2023-11-21T01:26:26.173Z,991.10
2023-11-21T01:26:36.397Z,991.11
2023-11-21T01:26:46.872Z,991.11
2023-11-21T01:26:57.097Z,991.09
2023-11-21T01:27:07.552Z,991.10
2023-11-21T01:27:18.021Z,991.11
2023-11-21T01:27:28.471Z,991.10
2023-11-21T01:27:38.964Z,991.10
2023-11-21T01:27:49.386Z,991.10
2023-11-21T01:27:59.845Z,991.10
2023-11-21T01:28:10.459Z,991.10
2023-11-21T01:28:20.875Z,991.10
2023-11-21T01:28:31.155Z,991.10
2023-11-21T01:28:41.446Z,991.10
2023-11-21T01:28:51.745Z,991.09
2023-11-21T01:29:01.941Z,991.10
2023-11-21T01:29:12.407Z,991.10
2023-11-21T01:29:22.857Z,991.10
2023-11-21T01:29:33.323Z,991.11
2023-11-21T01:29:43.781Z,991.11
2023-11-21T01:29:54.243Z,991.11
2023-11-21T01:30:04.716Z,991.12
2023-11-21T01:30:15.156Z,991.13
2023-11-21T01:30:25.619Z,991.12
2023-11-21T01:30:36.077Z,991.11
2023-11-21T01:30:46.604Z,991.10
2023-11-21T01:30:56.849Z,991.11
2023-11-21T01:31:07.074Z,991.11
2023-11-21T01:31:17.398Z,991.11
2023-11-21T01:31:27.745Z,991.11
2023-11-21T01:31:37.988Z,991.12
2023-11-21T01:31:48.353Z,991.12
2023-11-21T01:31:58.597Z,991.12
2023-11-21T01:32:08.914Z,991.12
2023-11-21T01:32:19.166Z,991.12
2023-11-21T01:32:29.408Z,991.12
2023-11-21T01:32:39.668Z,991.12
2023-11-21T01:32:49.948Z,991.13
2023-11-21T01:33:00.294Z,991.13
2023-11-21T01:33:10.754Z,991.14
2023-11-21T01:33:21.183Z,991.14
2023-11-21T01:33:31.498Z,991.14
2023-11-21T01:33:41.821Z,991.12
2023-11-21T01:33:52.028Z,991.13
2023-11-21T01:34:02.463Z,991.15
2023-11-21T01:34:12.967Z,991.15
2023-11-21T01:34:23.167Z,991.14
2023-11-21T01:34:33.644Z,991.14
2023-11-21T01:34:44.117Z,991.15
2023-11-21T01:34:54.541Z,991.15
2023-11-21T01:35:05.003Z,991.15
2023-11-21T01:35:15.465Z,991.15
2023-11-21T01:35:25.920Z,991.15
2023-11-21T01:35:36.390Z,991.15
2023-11-21T01:35:46.618Z,991.15
2023-11-21T01:35:57.098Z,991.15
2023-11-21T01:36:07.326Z,991.16
2023-11-21T01:36:17.776Z,991.16
2023-11-21T01:36:28.239Z,991.16
2023-11-21T01:36:38.695Z,991.17
2023-11-21T01:36:49.165Z,991.16
2023-11-21T01:36:59.617Z,991.17
2023-11-21T01:37:10.075Z,991.17
2023-11-21T01:37:20.554Z,991.17
2023-11-21T01:37:31.028Z,991.17
2023-11-21T01:37:41.556Z,991.17
2023-11-21T01:37:51.845Z,991.17
2023-11-21T01:38:02.041Z,991.17
2023-11-21T01:38:12.511Z,991.18
2023-11-21T01:38:22.959Z,991.18
2023-11-21T01:38:33.425Z,991.18
2023-11-21T01:38:43.881Z,991.18
2023-11-21T01:38:54.345Z,991.18
2023-11-21T01:39:04.797Z,991.18
2023-11-21T01:39:15.256Z,991.18
2023-11-21T01:39:25.728Z,991.18
2023-11-21T01:39:36.185Z,991.18
2023-11-21T01:39:46.642Z,991.18
2023-11-21T01:39:57.130Z,991.18
2023-11-21T01:40:07.337Z,991.19
2023-11-21T01:40:17.827Z,991.19
2023-11-21T01:40:28.061Z,991.19
2023-11-21T01:40:38.543Z,991.19
2023-11-21T01:40:48.746Z,991.20
2023-11-21T01:40:59.225Z,991.20
2023-11-21T01:41:09.431Z,991.19
2023-11-21T01:41:19.887Z,991.19
2023-11-21T01:41:30.358Z,991.19
2023-11-21T01:41:40.809Z,991.19
2023-11-21T01:41:51.267Z,991.19
2023-11-21T01:42:01.727Z,991.19
2023-11-21T01:42:12.184Z,991.20
2023-11-21T01:42:22.646Z,991.20
2023-11-21T01:42:33.112Z,991.20
2023-11-21T01:42:43.564Z,991.21
2023-11-21T01:42:54.021Z,991.20
2023-11-21T01:43:04.502Z,991.20
2023-11-21T01:43:14.995Z,991.21
2023-11-21T01:43:25.242Z,991.21
2023-11-21T01:43:35.792Z,991.22
2023-11-21T01:43:46.035Z,991.22
2023-11-21T01:43:56.279Z,991.20
2023-11-21T01:44:06.612Z,991.20
2023-11-21T01:44:17.080Z,991.21
2023-11-21T01:44:27.497Z,991.22
2023-11-21T01:44:37.955Z,991.21
2023-11-21T01:44:48.428Z,991.20
2023-11-21T01:44:58.888Z,991.21
2023-11-21T01:45:09.108Z,991.22
2023-11-21T01:45:19.579Z,991.22
2023-11-21T01:45:29.807Z,991.21
2023-11-21T01:45:40.264Z,991.22
2023-11-21T01:45:50.727Z,991.21
2023-11-21T01:46:01.185Z,991.21
2023-11-21T01:46:11.644Z,991.21
2023-11-21T01:46:22.109Z,991.21
2023-11-21T01:46:32.608Z,991.21
2023-11-21T01:46:42.914Z,991.21
2023-11-21T01:46:53.192Z,991.21
2023-11-21T01:47:03.633Z,991.21
2023-11-21T01:47:14.143Z,991.21
2023-11-21T01:47:24.379Z,991.21
2023-11-21T01:47:34.926Z,991.21
2023-11-21T01:47:45.245Z,991.21
2023-11-21T01:47:57.572Z,991.21
2023-11-21T01:48:05.898Z,991.21
2023-11-21T01:48:16.167Z,991.21
2023-11-21T01:48:26.443Z,991.21
2023-11-21T01:48:36.752Z,991.21
2023-11-21T01:48:47.028Z,991.22
2023-11-21T01:48:57.286Z,991.22
2023-11-21T01:49:07.707Z,991.22
2023-11-21T01:49:18.184Z,991.21
2023-11-21T01:49:28.675Z,991.21
2023-11-21T01:49:38.944Z,991.22
2023-11-21T01:49:49.241Z,991.21
2023-11-21T01:49:59.476Z,991.22
2023-11-21T01:50:09.719Z,991.22
2023-11-21T01:50:20.171Z,991.23
2023-11-21T01:50:30.616Z,991.23
2023-11-21T01:50:41.093Z,991.22
2023-11-21T01:50:51.534Z,991.22
2023-11-21T01:51:01.996Z,991.23
2023-11-21T01:51:12.465Z,991.22
2023-11-21T01:51:22.918Z,991.22
2023-11-21T01:51:33.370Z,991.22
2023-11-21T01:51:43.827Z,991.22
2023-11-21T01:51:54.287Z,991.21
2023-11-21T01:52:04.746Z,991.21
2023-11-21T01:52:15.231Z,991.21
2023-11-21T01:52:25.750Z,991.21
2023-11-21T01:52:36.074Z,991.21
2023-11-21T01:52:46.297Z,991.21
2023-11-21T01:52:56.564Z,991.21
2023-11-21T01:53:07.011Z,991.21
2023-11-21T01:53:17.471Z,991.20
2023-11-21T01:53:27.946Z,991.21
2023-11-21T01:53:38.410Z,991.21
2023-11-21T01:53:48.859Z,991.21
2023-11-21T01:53:59.310Z,991.21
2023-11-21T01:54:17.022Z,991.22
2023-11-21T01:54:21.226Z,991.20
2023-11-21T01:54:30.489Z,991.21
2023-11-21T01:54:40.963Z,991.22
2023-11-21T01:54:51.184Z,991.22
2023-11-21T01:55:01.663Z,991.22
2023-11-21T01:55:12.216Z,991.22
2023-11-21T01:55:32.784Z,991.22
2023-11-21T01:55:43.260Z,991.22
2023-11-21T01:55:55.459Z,991.23
2023-11-21T01:56:03.952Z,991.23
2023-11-21T01:56:14.194Z,991.22
2023-11-21T01:56:24.406Z,991.22
2023-11-21T01:56:34.855Z,991.22
2023-11-21T01:56:45.313Z,991.23
2023-11-21T01:56:55.771Z,991.23
2023-11-21T01:57:06.230Z,991.22
2023-11-21T01:57:16.689Z,991.23
2023-11-21T01:57:27.147Z,991.24
2023-11-21T01:57:37.616Z,991.24
2023-11-21T01:57:48.066Z,991.24
2023-11-21T01:57:58.990Z,991.24
2023-11-21T01:58:08.799Z,991.24
2023-11-21T01:58:19.263Z,991.25
2023-11-21T01:58:29.732Z,991.25
2023-11-21T01:58:40.192Z,991.24
2023-11-21T01:58:50.672Z,991.25
2023-11-21T01:59:00.889Z,991.25
2023-11-21T01:59:11.353Z,991.25
2023-11-21T01:59:21.583Z,991.25
2023-11-21T01:59:32.040Z,991.25
2023-11-21T01:59:42.493Z,991.25
2023-11-21T01:59:52.952Z,991.25
2023-11-21T02:00:03.411Z,991.26
2023-11-21T02:00:13.873Z,991.25
2023-11-21T02:00:24.333Z,991.25
2023-11-21T02:00:34.794Z,991.25
2023-11-21T02:00:45.245Z,991.26
2023-11-21T02:00:55.704Z,991.26
2023-11-21T02:01:06.172Z,991.25
2023-11-21T02:01:16.656Z,991.25
2023-11-21T02:01:26.894Z,991.25
2023-11-21T02:01:37.377Z,991.25
2023-11-21T02:01:47.613Z,991.25
2023-11-21T02:01:57.823Z,991.25
2023-11-21T02:02:08.333Z,991.25
2023-11-21T02:02:18.548Z,991.25
2023-11-21T02:02:29.046Z,991.25
2023-11-21T02:02:39.359Z,991.25
2023-11-21T02:02:49.723Z,991.25
2023-11-21T02:03:00.087Z,991.25
2023-11-21T02:03:10.420Z,991.25
2023-11-21T02:03:20.693Z,991.25
2023-11-21T02:03:31.011Z,991.25
2023-11-21T02:03:41.325Z,991.25
2023-11-21T02:03:51.627Z,991.25
2023-11-21T02:04:01.933Z,991.25
2023-11-21T02:04:12.188Z,991.25
2023-11-21T02:04:22.706Z,991.25
2023-11-21T02:04:32.783Z,991.25
2023-11-21T02:04:43.081Z,991.26
2023-11-21T02:04:53.593Z,991.27
2023-11-21T02:05:03.836Z,991.27
2023-11-21T02:05:14.166Z,991.26
2023-11-21T02:05:24.614Z,991.27
2023-11-21T02:05:35.071Z,991.29
2023-11-21T02:05:45.528Z,991.29
2023-11-21T02:05:55.985Z,991.30
2023-11-21T02:06:06.448Z,991.30
2023-11-21T02:06:16.893Z,991.30
2023-11-21T02:06:27.357Z,991.31
2023-11-21T02:06:37.812Z,991.32
2023-11-21T02:06:48.279Z,991.33
2023-11-21T02:06:58.739Z,991.33
2023-11-21T02:07:09.200Z,991.33
2023-11-21T02:07:19.672Z,991.34
2023-11-21T02:07:30.144Z,991.35
2023-11-21T02:07:40.617Z,991.36
2023-11-21T02:07:50.842Z,991.35
2023-11-21T02:08:01.047Z,991.35
2023-11-21T02:08:11.514Z,991.35
2023-11-21T02:08:21.735Z,991.36
2023-11-21T02:08:32.209Z,991.37
2023-11-21T02:08:42.432Z,991.37
2023-11-21T02:08:52.890Z,991.38
2023-11-21T02:09:03.350Z,991.38
2023-11-21T02:09:13.810Z,991.37
2023-11-21T02:09:24.265Z,991.37
2023-11-21T02:09:34.725Z,991.38
2023-11-21T02:09:45.182Z,991.38
2023-11-21T02:09:55.641Z,991.39